createdAt,value
2023-05-06T00:01:23.167Z,19.70
2023-05-06T00:03:50.667Z,21.10
2023-05-06T00:06:17.620Z,20.97
2023-05-06T00:08:45.202Z,19.87
2023-05-06T00:11:12.693Z,17.87
2023-05-06T00:13:39.584Z,20.10
2023-05-06T00:16:06.626Z,21.00
2023-05-06T00:18:33.602Z,22.63
2023-05-06T00:21:00.584Z,22.37
2023-05-06T00:23:27.602Z,24.30
2023-05-06T00:25:54.983Z,24.27
2023-05-06T00:28:22.066Z,23.90
2023-05-06T00:30:49.198Z,23.70
2023-05-06T00:33:16.322Z,25.77
2023-05-06T00:35:43.307Z,25.73
2023-05-06T00:38:12.814Z,26.80
2023-05-06T00:40:40.228Z,25.47
2023-05-06T00:43:07.538Z,26.93
2023-05-06T00:45:35.138Z,25.43
2023-05-06T00:48:02.749Z,25.17
2023-05-06T00:50:31.248Z,24.93
2023-05-06T00:52:59.344Z,23.83
2023-05-06T00:55:27.346Z,23.20
2023-05-06T00:57:54.917Z,27.60
2023-05-06T01:00:26.421Z,26.43
2023-05-06T01:02:53.698Z,28.30
2023-05-06T01:05:24.063Z,26.83
2023-05-06T01:08:11.579Z,27.00
2023-05-06T01:10:55.132Z,26.63
2023-05-06T01:13:36.475Z,28.27
2023-05-06T01:16:05.082Z,28.17
2023-05-06T01:18:33.105Z,26.30
2023-05-06T01:21:01.935Z,25.00
2023-05-06T01:23:28.914Z,29.13
2023-05-06T01:25:56.003Z,25.60
2023-05-06T01:28:22.956Z,25.07
2023-05-06T01:31:05.520Z,24.93
2023-05-06T01:33:41.692Z,24.33
2023-05-06T01:36:39.140Z,24.83
2023-05-06T01:39:26.803Z,27.37
2023-05-06T01:41:57.386Z,26.50
2023-05-06T01:44:27.696Z,25.93
2023-05-06T01:46:56.256Z,28.83
2023-05-06T01:49:25.158Z,29.20
2023-05-06T01:51:54.270Z,27.20
2023-05-06T01:54:21.373Z,26.30
2023-05-06T01:56:48.346Z,27.30
2023-05-06T01:59:15.633Z,27.13
2023-05-06T02:01:42.643Z,27.07
2023-05-06T02:04:09.527Z,28.47
2023-05-06T02:06:36.484Z,28.07
2023-05-06T02:09:04.202Z,27.60
2023-05-06T02:11:34.301Z,26.60
2023-05-06T02:14:04.597Z,29.00
2023-05-06T02:16:33.831Z,28.27
2023-05-06T02:19:00.977Z,28.63
2023-05-06T02:21:28.386Z,28.00
2023-05-06T02:23:55.442Z,28.73
2023-05-06T02:26:22.399Z,29.40
2023-05-06T02:28:49.315Z,29.97
2023-05-06T02:31:16.484Z,27.83
2023-05-06T02:33:45.567Z,27.47
2023-05-06T02:36:12.792Z,29.17
2023-05-06T02:38:39.759Z,26.63
2023-05-06T02:41:06.827Z,26.67
2023-05-06T02:43:33.860Z,26.47
2023-05-06T02:46:00.852Z,24.33
2023-05-06T02:48:27.778Z,25.23
2023-05-06T02:50:54.705Z,26.93
2023-05-06T02:53:22.073Z,25.40
2023-05-06T02:55:49.207Z,25.97
2023-05-06T02:58:16.356Z,28.17
2023-05-06T03:00:43.319Z,26.47
2023-05-06T03:03:10.267Z,26.77
2023-05-06T03:05:37.209Z,27.10
2023-05-06T03:08:04.301Z,25.63
2023-05-06T03:10:32.379Z,25.83
2023-05-06T03:13:00.944Z,26.00
2023-05-06T03:15:28.945Z,24.47
2023-05-06T03:17:55.870Z,23.60
2023-05-06T03:20:24.187Z,25.17
2023-05-06T03:22:55.851Z,24.13
2023-05-06T03:25:23.615Z,25.67
2023-05-06T03:27:51.015Z,25.73
2023-05-06T03:30:21.397Z,26.70
2023-05-06T03:32:50.323Z,27.50
2023-05-06T03:35:23.905Z,26.60
2023-05-06T03:37:55.543Z,28.00
2023-05-06T03:40:24.905Z,28.03
2023-05-06T03:42:52.349Z,28.20
2023-05-06T03:45:23.095Z,29.20
2023-05-06T03:47:50.553Z,26.03
2023-05-06T03:50:20.211Z,29.70
2023-05-06T03:52:47.495Z,30.47
2023-05-06T03:55:14.758Z,33.30
2023-05-06T03:57:41.801Z,33.00
2023-05-06T04:00:09.343Z,33.63
2023-05-06T04:02:43.559Z,30.60
2023-05-06T04:05:17.888Z,31.30
2023-05-06T04:07:45.706Z,30.87
2023-05-06T04:10:12.907Z,31.83
2023-05-06T04:12:42.221Z,30.27
2023-05-06T04:15:11.302Z,27.87
2023-05-06T04:17:38.664Z,29.70
2023-05-06T04:20:07.352Z,30.37
2023-05-06T04:22:34.682Z,30.17
2023-05-06T04:25:02.040Z,32.20
2023-05-06T04:27:32.126Z,33.90
2023-05-06T04:30:00.843Z,33.93
2023-05-06T04:32:29.418Z,31.87
2023-05-06T04:34:57.194Z,28.43
2023-05-06T04:37:25.255Z,32.20
2023-05-06T04:39:59.624Z,30.67
2023-05-06T04:42:26.928Z,35.30
2023-05-06T04:45:05.663Z,30.33
2023-05-06T04:47:34.519Z,33.10
2023-05-06T04:50:02.373Z,33.57
2023-05-06T04:52:30.275Z,33.70
2023-05-06T04:54:57.394Z,32.17
2023-05-06T04:57:24.532Z,29.53
2023-05-06T04:59:53.814Z,31.03
2023-05-06T05:02:20.904Z,33.03
2023-05-06T05:04:47.951Z,29.83
2023-05-06T05:07:15.621Z,33.10
2023-05-06T05:09:42.713Z,34.27
2023-05-06T05:12:09.894Z,33.00
2023-05-06T05:14:42.619Z,31.57
2023-05-06T05:17:11.267Z,31.20
2023-05-06T05:19:39.400Z,30.57
2023-05-06T05:22:06.674Z,31.03
2023-05-06T05:24:33.936Z,34.77
2023-05-06T05:27:01.898Z,33.80
2023-05-06T05:29:29.106Z,35.87
2023-05-06T05:31:56.154Z,32.80
2023-05-06T05:34:23.762Z,35.97
2023-05-06T05:36:51.685Z,36.03
2023-05-06T05:39:19.007Z,35.63
2023-05-06T05:41:48.008Z,34.90
2023-05-06T05:44:16.255Z,32.83
2023-05-06T05:46:43.232Z,34.20
2023-05-06T05:49:13.761Z,33.17
2023-05-06T05:51:41.558Z,33.17
2023-05-06T05:54:10.236Z,37.03
2023-05-06T05:56:38.128Z,36.43
2023-05-06T05:59:06.047Z,39.17
2023-05-06T06:01:33.053Z,38.10
2023-05-06T06:04:00.157Z,36.50
2023-05-06T06:06:27.379Z,38.63
2023-05-06T06:08:55.514Z,37.03
2023-05-06T06:11:22.846Z,37.57
2023-05-06T06:13:50.811Z,37.07
2023-05-06T06:16:17.769Z,37.67
2023-05-06T06:18:44.757Z,37.33
2023-05-06T06:21:12.014Z,38.60
2023-05-06T06:23:39.696Z,36.17
2023-05-06T06:26:06.977Z,36.53
2023-05-06T06:28:33.997Z,39.47
2023-05-06T06:31:01.956Z,37.33
2023-05-06T06:33:29.209Z,39.10
2023-05-06T06:35:56.162Z,43.57
2023-05-06T06:38:23.097Z,37.37
2023-05-06T06:40:50.369Z,36.43
2023-05-06T06:43:19.801Z,35.30
2023-05-06T06:45:59.349Z,35.10
2023-05-06T06:48:26.489Z,35.00
2023-05-06T06:50:53.471Z,34.97
2023-05-06T06:53:20.906Z,36.13
2023-05-06T06:55:47.986Z,37.13
2023-05-06T06:58:15.025Z,34.40
2023-05-06T07:00:42.734Z,35.97
2023-05-06T07:03:09.683Z,32.37
2023-05-06T07:05:36.638Z,31.53
2023-05-06T07:08:03.654Z,31.23
2023-05-06T07:10:30.726Z,30.40
2023-05-06T07:12:58.467Z,29.00
2023-05-06T07:15:25.735Z,29.70
2023-05-06T07:17:52.812Z,24.88
2023-05-06T07:20:19.827Z,24.13
2023-05-06T07:22:46.837Z,20.50
2023-05-06T07:25:13.999Z,19.85
2023-05-06T07:27:41.012Z,20.75
2023-05-06T07:30:08.530Z,19.67
2023-05-06T07:32:35.958Z,18.42
2023-05-06T07:35:03.500Z,19.17
2023-05-06T07:37:30.428Z,17.77
2023-05-06T07:39:58.301Z,16.92
2023-05-06T07:42:25.318Z,18.40
2023-05-06T07:44:52.225Z,18.77
2023-05-06T07:47:32.571Z,18.50
2023-05-06T07:50:00.293Z,15.48
2023-05-06T07:52:27.705Z,14.70
2023-05-06T07:54:54.729Z,15.85
2023-05-06T07:57:21.827Z,17.02
2023-05-06T07:59:50.949Z,15.65
2023-05-06T08:02:18.788Z,15.98
2023-05-06T08:04:46.614Z,16.08
2023-05-06T08:07:14.914Z,14.55
2023-05-06T08:09:41.901Z,14.90
2023-05-06T08:12:08.908Z,13.90
2023-05-06T08:14:35.961Z,13.25
2023-05-06T08:17:02.957Z,13.32
2023-05-06T08:19:30.081Z,13.38
2023-05-06T08:21:57.032Z,12.05
2023-05-06T08:24:24.115Z,12.13
2023-05-06T08:26:51.311Z,11.35
2023-05-06T08:29:19.363Z,11.70
2023-05-06T08:31:46.874Z,10.85
2023-05-06T08:34:13.930Z,10.00
2023-05-06T08:36:40.900Z,10.90
2023-05-06T08:39:07.806Z,10.18
2023-05-06T08:41:35.843Z,9.25
2023-05-06T08:44:05.267Z,8.35
2023-05-06T08:46:32.343Z,8.80
2023-05-06T08:48:59.813Z,9.50
2023-05-06T08:51:31.555Z,7.85
2023-05-06T08:54:02.126Z,7.78
2023-05-06T08:56:32.806Z,8.02
2023-05-06T08:59:01.330Z,8.10
2023-05-06T09:01:28.985Z,8.57
2023-05-06T09:03:58.065Z,9.23
2023-05-06T09:06:25.458Z,8.05
2023-05-06T09:08:52.629Z,8.07
2023-05-06T09:11:28.586Z,8.48
2023-05-06T09:14:10.204Z,8.15
2023-05-06T09:16:37.887Z,7.40
2023-05-06T09:19:05.076Z,8.90
2023-05-06T09:21:46.542Z,9.40
2023-05-06T09:24:15.262Z,8.77
2023-05-06T09:26:43.668Z,9.00
2023-05-06T09:29:11.060Z,9.20
2023-05-06T09:31:45.920Z,8.30
2023-05-06T09:34:14.436Z,8.48
2023-05-06T09:36:41.584Z,7.72
2023-05-06T09:39:09.843Z,7.45
2023-05-06T09:41:36.893Z,7.57
2023-05-06T09:44:04.144Z,7.18
2023-05-06T09:46:31.391Z,7.82
2023-05-06T09:48:58.952Z,7.35
2023-05-06T09:51:31.046Z,7.32
2023-05-06T09:53:59.138Z,6.35
2023-05-06T09:56:26.733Z,5.90
2023-05-06T09:58:55.811Z,5.95
2023-05-06T10:01:35.499Z,6.32
2023-05-06T10:04:08.388Z,6.47
2023-05-06T10:06:39.350Z,6.43
2023-05-06T10:09:08.242Z,5.97
2023-05-06T10:11:36.480Z,7.53
2023-05-06T10:14:04.251Z,6.85
2023-05-06T10:16:33.623Z,6.35
2023-05-06T10:19:03.889Z,7.03
2023-05-06T10:21:34.559Z,6.18
2023-05-06T10:24:07.101Z,6.05
2023-05-06T10:26:37.518Z,5.90
2023-05-06T10:29:10.727Z,6.53
2023-05-06T10:31:43.991Z,6.60
2023-05-06T10:34:11.002Z,6.47
2023-05-06T10:36:39.876Z,6.70
2023-05-06T10:39:10.214Z,6.75
2023-05-06T10:41:37.790Z,5.55
2023-05-06T10:44:06.131Z,5.35
2023-05-06T10:46:57.382Z,5.50
2023-05-06T10:49:24.820Z,5.53
2023-05-06T10:52:14.264Z,5.95
2023-05-06T10:54:51.610Z,5.68
2023-05-06T10:57:20.815Z,5.53
2023-05-06T10:59:48.847Z,4.25
2023-05-06T11:02:19.957Z,5.10
2023-05-06T11:04:52.110Z,3.88
2023-05-06T11:07:23.698Z,3.42
2023-05-06T11:09:58.849Z,4.70
2023-05-06T11:12:52.454Z,3.88
2023-05-06T11:15:40.477Z,3.97
2023-05-06T11:18:29.426Z,4.80
2023-05-06T11:21:04.928Z,4.35
2023-05-06T11:23:47.122Z,3.58
2023-05-06T11:26:14.312Z,3.83
2023-05-06T11:28:44.662Z,4.00
2023-05-06T11:31:13.256Z,5.05
2023-05-06T11:33:48.568Z,4.25
2023-05-06T11:36:17.766Z,3.17
2023-05-06T11:38:51.250Z,3.40
2023-05-06T11:41:18.948Z,3.05
2023-05-06T11:43:50.218Z,3.55
2023-05-06T11:46:19.846Z,3.40
2023-05-06T11:48:47.156Z,3.40
2023-05-06T11:51:14.260Z,3.55
2023-05-06T11:53:41.264Z,2.92
2023-05-06T11:56:08.448Z,2.72
2023-05-06T11:58:35.331Z,3.30
2023-05-06T12:01:04.118Z,2.70
2023-05-06T12:03:32.706Z,3.70
2023-05-06T12:06:00.549Z,3.30
2023-05-06T12:08:33.508Z,3.20
2023-05-06T12:11:06.221Z,2.70
2023-05-06T12:13:36.776Z,3.40
2023-05-06T12:16:05.734Z,2.80
2023-05-06T12:18:33.061Z,2.80
2023-05-06T12:21:06.037Z,3.35
2023-05-06T12:23:33.207Z,2.90
2023-05-06T12:26:04.738Z,3.33
2023-05-06T12:28:33.652Z,2.60
2023-05-06T12:31:02.000Z,3.35
2023-05-06T12:33:44.083Z,3.15
2023-05-06T12:36:11.320Z,2.63
2023-05-06T12:38:38.338Z,2.95
2023-05-06T12:41:07.078Z,3.10
2023-05-06T12:43:34.093Z,2.85
2023-05-06T12:46:08.961Z,2.83
2023-05-06T12:48:36.168Z,2.58
2023-05-06T12:51:19.082Z,2.53
2023-05-06T12:53:46.470Z,2.22
2023-05-06T12:56:13.832Z,2.00
2023-05-06T12:58:40.730Z,3.10
2023-05-06T13:01:08.098Z,2.35
2023-05-06T13:03:38.366Z,3.00
2023-05-06T13:06:05.897Z,2.42
2023-05-06T13:08:33.871Z,2.67
2023-05-06T13:11:02.427Z,2.25
2023-05-06T13:13:29.467Z,1.98
2023-05-06T13:15:56.625Z,2.40
2023-05-06T13:18:23.614Z,2.10
2023-05-06T13:20:51.734Z,2.30
2023-05-06T13:23:19.636Z,2.38
2023-05-06T13:26:02.751Z,2.05
2023-05-06T13:28:32.082Z,2.75
2023-05-06T13:30:59.093Z,2.10
2023-05-06T13:33:26.181Z,2.58
2023-05-06T13:35:53.243Z,2.40
2023-05-06T13:38:20.445Z,2.60
2023-05-06T13:40:52.580Z,2.25
2023-05-06T13:43:20.784Z,1.98
2023-05-06T13:45:47.818Z,2.30
2023-05-06T13:48:15.047Z,2.10
2023-05-06T13:50:42.829Z,2.50
2023-05-06T13:53:10.718Z,2.47
2023-05-06T13:55:38.282Z,2.22
2023-05-06T13:58:06.354Z,2.47
2023-05-06T14:00:34.491Z,2.30
2023-05-06T14:03:01.761Z,3.00
2023-05-06T14:05:28.832Z,2.10
2023-05-06T14:07:55.903Z,2.50
2023-05-06T14:10:22.901Z,2.30
2023-05-06T14:12:50.050Z,2.33
2023-05-06T14:15:17.153Z,2.35
2023-05-06T14:17:44.224Z,2.15
2023-05-06T14:20:11.775Z,2.28
2023-05-06T14:22:42.578Z,2.50
2023-05-06T14:25:10.609Z,2.50
2023-05-06T14:27:37.765Z,2.50
2023-05-06T14:30:08.202Z,2.72
2023-05-06T14:32:35.816Z,2.70
2023-05-06T14:35:02.965Z,2.63
2023-05-06T14:37:30.114Z,2.90
2023-05-06T14:39:57.546Z,2.42
2023-05-06T14:42:24.487Z,2.70
2023-05-06T14:44:51.416Z,2.10
2023-05-06T14:47:19.087Z,2.65
2023-05-06T14:49:46.059Z,3.50
2023-05-06T14:52:12.950Z,3.08
2023-05-06T14:54:42.893Z,3.10
2023-05-06T14:57:11.327Z,4.82
2023-05-06T14:59:38.686Z,3.30
2023-05-06T15:02:09.282Z,3.47
2023-05-06T15:04:36.787Z,3.13
2023-05-06T15:07:03.956Z,2.33
2023-05-06T15:09:31.154Z,2.22
2023-05-06T15:11:58.233Z,2.35
2023-05-06T15:14:25.253Z,2.28
2023-05-06T15:16:57.040Z,3.20
2023-05-06T15:19:24.456Z,2.53
2023-05-06T15:21:51.373Z,3.22
2023-05-06T15:24:18.397Z,5.72
2023-05-06T15:26:45.296Z,3.60
2023-05-06T15:29:12.764Z,3.50
2023-05-06T15:31:40.886Z,3.67
2023-05-06T15:34:10.580Z,3.30
2023-05-06T15:36:38.040Z,3.22
2023-05-06T15:39:05.272Z,3.03
2023-05-06T15:41:33.691Z,2.88
2023-05-06T15:44:02.294Z,2.65
2023-05-06T15:46:30.637Z,2.55
2023-05-06T15:49:15.665Z,3.13
2023-05-06T15:51:44.877Z,3.22
2023-05-06T15:54:11.776Z,17.52
2023-05-06T15:56:41.427Z,2.67
2023-05-06T15:59:08.852Z,2.97
2023-05-06T16:02:19.040Z,2.80
2023-05-06T16:04:24.772Z,3.03
2023-05-06T16:06:51.958Z,3.47
2023-05-06T16:09:19.014Z,3.72
2023-05-06T16:11:46.271Z,3.60
2023-05-06T16:14:13.472Z,3.53
2023-05-06T16:16:40.585Z,3.22
2023-05-06T16:19:07.924Z,5.43
2023-05-06T16:21:34.845Z,3.95
2023-05-06T16:24:02.536Z,4.10
2023-05-06T16:26:31.827Z,3.63
2023-05-06T16:28:59.569Z,5.80
2023-05-06T16:31:26.982Z,3.55
2023-05-06T16:33:53.910Z,4.25
2023-05-06T16:36:20.926Z,3.50
2023-05-06T16:38:47.753Z,3.58
2023-05-06T16:41:14.739Z,4.05
2023-05-06T16:43:41.633Z,3.90
2023-05-06T16:46:08.601Z,4.28
2023-05-06T16:48:35.580Z,4.60
2023-05-06T16:51:02.554Z,4.60
2023-05-06T16:53:29.578Z,4.72
2023-05-06T16:55:56.591Z,4.20
2023-05-06T16:58:23.879Z,3.80
2023-05-06T17:00:54.130Z,3.90
2023-05-06T17:03:21.396Z,4.03
2023-05-06T17:05:48.345Z,4.45
2023-05-06T17:08:16.272Z,3.75
2023-05-06T17:10:43.603Z,3.10
2023-05-06T17:13:10.873Z,3.40
2023-05-06T17:15:37.936Z,3.92
2023-05-06T17:18:04.911Z,3.38
2023-05-06T17:20:33.676Z,3.20
2023-05-06T17:23:04.977Z,2.70
2023-05-06T17:25:32.085Z,3.50
2023-05-06T17:27:59.022Z,3.20
2023-05-06T17:30:25.982Z,3.88
2023-05-06T17:32:52.956Z,3.28
2023-05-06T17:35:20.356Z,3.08
2023-05-06T17:37:47.242Z,3.80
2023-05-06T17:40:15.193Z,3.55
2023-05-06T17:42:42.184Z,3.08
2023-05-06T17:45:09.732Z,3.30
2023-05-06T17:47:36.893Z,3.70
2023-05-06T17:50:04.204Z,3.45
2023-05-06T17:52:31.228Z,3.47
2023-05-06T17:55:14.927Z,3.25
2023-05-06T17:57:43.749Z,3.53
2023-05-06T18:00:11.557Z,3.65
2023-05-06T18:02:42.940Z,4.07
2023-05-06T18:05:10.346Z,3.80
2023-05-06T18:07:37.456Z,4.35
2023-05-06T18:10:04.673Z,3.97
2023-05-06T18:12:32.024Z,4.72
2023-05-06T18:14:59.112Z,3.90
2023-05-06T18:17:26.169Z,4.63
2023-05-06T18:19:53.139Z,4.10
2023-05-06T18:22:20.436Z,3.38
2023-05-06T18:24:47.428Z,4.20
2023-05-06T18:27:14.402Z,3.80
2023-05-06T18:29:41.432Z,6.63
2023-05-06T18:32:08.669Z,6.32
2023-05-06T18:34:35.803Z,3.83
2023-05-06T18:37:02.779Z,6.10
2023-05-06T18:39:29.695Z,6.65
2023-05-06T18:41:56.658Z,3.13
2023-05-06T18:44:23.589Z,6.30
2023-05-06T18:46:51.019Z,6.55
2023-05-06T18:49:17.865Z,8.05
2023-05-06T18:51:44.776Z,7.78
2023-05-06T18:54:13.433Z,10.48
2023-05-06T18:56:42.408Z,10.45
2023-05-06T18:59:09.720Z,10.55
2023-05-06T19:01:36.710Z,9.60
2023-05-06T19:04:04.405Z,8.18
2023-05-06T19:06:32.465Z,6.82
2023-05-06T19:08:59.596Z,6.10
2023-05-06T19:11:26.567Z,6.22
2023-05-06T19:13:53.422Z,6.93
2023-05-06T19:16:20.593Z,6.25
2023-05-06T19:18:47.830Z,6.38
2023-05-06T19:21:15.364Z,6.00
2023-05-06T19:23:42.233Z,5.68
2023-05-06T19:26:12.040Z,5.57
2023-05-06T19:28:40.580Z,5.03
2023-05-06T19:31:11.333Z,4.53
2023-05-06T19:33:39.396Z,4.57
2023-05-06T19:36:06.924Z,4.13
2023-05-06T19:38:34.386Z,5.03
2023-05-06T19:41:01.548Z,4.45
2023-05-06T19:43:30.761Z,4.82
2023-05-06T19:45:57.664Z,4.43
2023-05-06T19:48:24.669Z,4.82
2023-05-06T19:50:53.821Z,4.60
2023-05-06T19:53:22.737Z,5.18
2023-05-06T19:55:49.728Z,5.30
2023-05-06T19:58:17.296Z,5.47
2023-05-06T20:00:45.408Z,5.93
2023-05-06T20:03:12.757Z,7.00
2023-05-06T20:05:39.846Z,7.85
2023-05-06T20:08:10.991Z,8.27
2023-05-06T20:10:38.744Z,8.40
2023-05-06T20:13:07.118Z,8.40
2023-05-06T20:15:35.368Z,8.50
2023-05-06T20:18:02.495Z,8.20
2023-05-06T20:20:34.393Z,8.27
2023-05-06T20:23:02.082Z,8.63
2023-05-06T20:25:29.588Z,9.20
2023-05-06T20:27:57.821Z,7.90
2023-05-06T20:30:25.682Z,8.20
2023-05-06T20:32:52.938Z,7.93
2023-05-06T20:35:20.146Z,8.60
2023-05-06T20:37:47.124Z,8.23
2023-05-06T20:40:14.363Z,7.75
2023-05-06T20:42:41.377Z,7.03
2023-05-06T20:45:09.149Z,7.20
2023-05-06T20:47:36.791Z,8.03
2023-05-06T20:50:04.042Z,8.27
2023-05-06T20:52:31.096Z,7.90
2023-05-06T20:54:58.296Z,8.07
2023-05-06T20:57:25.340Z,8.60
2023-05-06T20:59:52.689Z,7.87
2023-05-06T21:02:19.931Z,7.60
2023-05-06T21:04:46.965Z,8.07
2023-05-06T21:07:14.092Z,7.63
2023-05-06T21:09:40.991Z,7.67
2023-05-06T21:12:07.918Z,8.60
2023-05-06T21:14:34.842Z,7.60
2023-05-06T21:17:01.744Z,7.67
2023-05-06T21:19:28.788Z,7.80
2023-05-06T21:21:56.677Z,7.53
2023-05-06T21:24:23.779Z,6.70
2023-05-06T21:26:51.651Z,6.70
2023-05-06T21:29:18.620Z,6.53
2023-05-06T21:31:45.591Z,6.60
2023-05-06T21:34:12.664Z,6.73
2023-05-06T21:36:39.611Z,6.60
2023-05-06T21:39:11.762Z,6.20
2023-05-06T21:41:39.195Z,5.93
2023-05-06T21:44:08.001Z,5.87
2023-05-06T21:46:35.644Z,6.23
2023-05-06T21:49:02.585Z,6.30
2023-05-06T21:51:34.873Z,5.87
2023-05-06T21:54:02.839Z,5.73
2023-05-06T21:56:30.012Z,6.13
2023-05-06T21:58:56.905Z,5.83
2023-05-06T22:01:27.816Z,5.87
2023-05-06T22:03:54.971Z,5.93
2023-05-06T22:06:22.930Z,5.87
2023-05-06T22:08:50.368Z,6.37
2023-05-06T22:11:17.537Z,6.33
2023-05-06T22:13:44.509Z,5.67
2023-05-06T22:16:11.573Z,6.27
2023-05-06T22:18:41.479Z,5.67
2023-05-06T22:21:09.505Z,5.83
2023-05-06T22:23:36.651Z,6.07
2023-05-06T22:26:03.843Z,5.87
2023-05-06T22:28:30.758Z,6.00
2023-05-06T22:30:57.704Z,5.63
2023-05-06T22:33:26.400Z,5.87
2023-05-06T22:35:53.813Z,6.20
2023-05-06T22:38:20.925Z,5.80
2023-05-06T22:40:47.828Z,5.60
2023-05-06T22:43:14.779Z,5.70
2023-05-06T22:45:41.808Z,5.97
2023-05-06T22:48:08.897Z,5.97
2023-05-06T22:50:36.530Z,5.80
2023-05-06T22:53:13.631Z,5.83
2023-05-06T22:55:41.851Z,5.93
2023-05-06T22:58:08.778Z,5.30
2023-05-06T23:00:35.835Z,5.50
2023-05-06T23:03:02.995Z,5.83
2023-05-06T23:05:30.004Z,5.40
2023-05-06T23:07:56.931Z,6.43
2023-05-06T23:10:23.861Z,6.70
2023-05-06T23:12:50.973Z,6.20
2023-05-06T23:15:18.043Z,5.93
2023-05-06T23:17:45.015Z,6.23
2023-05-06T23:20:12.902Z,5.90
2023-05-06T23:22:39.812Z,6.13
2023-05-06T23:25:09.243Z,6.17
2023-05-06T23:27:39.730Z,5.83
2023-05-06T23:30:08.205Z,5.47
2023-05-06T23:32:35.365Z,5.90
2023-05-06T23:35:02.927Z,5.97
2023-05-06T23:37:30.019Z,5.80
2023-05-06T23:40:00.375Z,5.70
2023-05-06T23:42:27.593Z,6.37
2023-05-06T23:44:54.557Z,6.37
2023-05-06T23:47:21.626Z,6.03
2023-05-06T23:49:48.623Z,5.83
2023-05-06T23:52:15.631Z,5.70
2023-05-06T23:54:42.549Z,6.13
2023-05-06T23:57:09.570Z,5.20
2023-05-06T23:59:36.509Z,4.80
